Nedlloyd Mercator — PCIM — position and weather

sailwx.info

Track history (hours):
 
Tides and Currents Weather Stations Pressure Air Temp Water Temp Dewpoint Dewpoint Depression Visibility Wind Speed Wind Dir Waves Ship Positions

Nedlloyd Mercator

Last reported at 2014-Sep-30 06:00 UTC. Time now 2014-Oct-01 14:20 UTC.
Position N 35°48' E 032°54'.

Length 278 m; beam 43 m.

Type: Ship (hazmat cat A). MMSI: 246433000.

Wind from 360 at 20 knots

Waves 2.5 meters (8 feet), 5 second period

Barometer 1015.4 mb
Air temperature 23.5 ° C
Visibility: greater than 10.8 NM
Dewpoint 8.6 ° C
Water temperature 26.5 ° C

Date/timePositionNaut miles runAvg speedWind from/ knotsBaromVisibWave heightAir tempDewpointWater temp
2014-Sep-30 06:00N 35°48' E 032°54'24813.8 360 / 201015.410.8 2.523.5 8.626.5
2014-Sep-29 12:00N 35°42' E 027°48'12112.7 010 / 101016.210.8 1.531.014.824.7
2014-Sep-29 02:32N 37°09' E 026°04'1313.3
2014-Sep-29 01:33N 37°21' E 025°58'1412.9
2014-Sep-29 00:27N 37°34' E 025°53'4 8.8
2014-Sep-29 00:00N 37°36' E 025°48'1319.2 360 / 201021.710.8 2.520.010.921.9
2014-Sep-28 23:19N 37°49' E 025°48'  
2014-Sep-26 07:30N 40°46' E 028°37'1010.9
2014-Sep-26 06:33N 40°45' E 028°51'1111.2
2014-Sep-26 05:33N 40°44' E 029°05'1111.2
2014-Sep-26 04:33N 40°44' E 029°20'1110.2
2014-Sep-26 03:30N 40°45' E 029°34'7 0.4
2014-Sep-25 11:05N 40°46' E 029°43'0 0.0
2014-Sep-25 10:11N 40°46' E 029°43'0 0.0
2014-Sep-25 04:33N 40°46' E 029°43'9 9.2
2014-Sep-25 03:32N 40°45' E 029°30'9 9.1
2014-Sep-25 02:33N 40°44' E 029°19'9 9.4
2014-Sep-25 01:33N 40°44' E 029°07'5 4.9
2014-Sep-25 00:33N 40°46' E 029°01'0 0.4
2014-Sep-24 23:33N 40°46' E 029°01'1 0.5
2014-Sep-24 22:33N 40°46' E 029°00'1 0.5
2014-Sep-24 21:33N 40°46' E 028°60'0 0.2
2014-Sep-24 20:33N 40°45' E 028°60'3 2.6
2014-Sep-24 19:32N 40°48' E 029°02'1 0.9
2014-Sep-24 18:33N 40°49' E 029°02'1 0.8
2014-Sep-24 17:33N 40°48' E 029°02'1 0.6
2014-Sep-24 16:33N 40°47' E 029°02'1 0.7
2014-Sep-24 15:33N 40°47' E 029°01'1 0.7
2014-Sep-24 14:33N 40°46' E 029°00'2 2.4
2014-Sep-24 13:33N 40°49' E 029°00'1 0.6
2014-Sep-24 12:33N 40°48' E 029°01'0 0.3
2014-Sep-24 11:32N 40°48' E 029°01'0 0.5
2014-Sep-24 10:30N 40°48' E 029°00'1 0.9
2014-Sep-24 09:33N 40°47' E 028°59'3 3.1
2014-Sep-24 08:33N 40°47' E 028°55'11 7.4
2014-Sep-24 07:06N 40°49' E 028°41'9 2.4
2014-Sep-24 03:20N 40°58' E 028°41'0 0.0
2014-Sep-24 02:32N 40°58' E 028°41'0 0.0
2014-Sep-24 01:32N 40°58' E 028°41'0 0.0
2014-Sep-23 23:20N 40°58' E 028°41'2 0.3
2014-Sep-23 18:33N 40°56' E 028°41'5 4.5
2014-Sep-23 17:21N 40°55' E 028°48'7 8.1
2014-Sep-23 16:32N 40°57' E 028°57'2310.5
2014-Sep-23 14:19N 41°19' E 029°09'1215.9
2014-Sep-23 13:33N 41°27' E 029°21'5 4.4
2014-Sep-23 12:31N 41°31' E 029°24'4 1.3
2014-Sep-23 09:18N 41°28' E 029°20'6 8.0
2014-Sep-23 08:34N 41°28' E 029°28'10111.8
2014-Sep-23 00:00N 42°12' E 031°30'7211.9 170 / 121004.210.8 1.023.019.122.9
2014-Sep-22 18:00N 42°48' E 032°54'7212.0 120 / 201008.210.8 2.020.516.422.5
2014-Sep-22 12:00N 43°18' E 034°24'3913.1 100 / 71010.310.8 0.520.519.720.1
2014-Sep-22 09:00N 43°36' E 035°12'10412.4 010 / 51011.410.8 0.520.014.920.8
2014-Sep-22 00:32N 44°25' E 037°20'3 5.1
2014-Sep-22 00:00N 44°24' E 037°24'1023.1 040 / 71011.2 5.4 0.517.013.822.8
2014-Sep-21 23:33N 44°30' E 037°35'1212.1
2014-Sep-21 22:33N 44°37' E 037°49'7 6.4
2014-Sep-21 21:31N 44°44' E 037°47'0 0.0
2014-Sep-21 20:31N 44°44' E 037°47'0 0.0
2014-Sep-21 19:31N 44°44' E 037°47'0 0.0
2014-Sep-21 18:31N 44°44' E 037°47'0 0.0
2014-Sep-21 17:31N 44°44' E 037°47'0 0.0
2014-Sep-21 16:31N 44°44' E 037°47'0 0.0
2014-Sep-21 15:31N 44°44' E 037°47'0 0.0
2014-Sep-21 14:34N 44°44' E 037°47'0 0.0
2014-Sep-21 13:34N 44°44' E 037°47'0 0.0
2014-Sep-21 12:33N 44°44' E 037°47'0 0.0
2014-Sep-21 11:33N 44°44' E 037°47'0 0.0
2014-Sep-21 10:33N 44°44' E 037°47'0 0.0
2014-Sep-21 09:33N 44°44' E 037°47'0 0.0
2014-Sep-21 08:33N 44°44' E 037°47'0 0.0
2014-Sep-21 07:33N 44°44' E 037°47'0 0.0
2014-Sep-21 06:33N 44°44' E 037°47'0 0.0
2014-Sep-21 05:33N 44°44' E 037°47'0 0.0
2014-Sep-21 04:33N 44°44' E 037°47'0 0.0
2014-Sep-21 03:33N 44°44' E 037°47'0 0.0
2014-Sep-21 02:33N 44°44' E 037°47'0 0.3
2014-Sep-21 01:33N 44°44' E 037°47'6 5.7
2014-Sep-21 00:33N 44°38' E 037°51'9 9.1
2014-Sep-20 23:33N 44°30' E 037°46'3 2.6
2014-Sep-20 22:33N 44°28' E 037°44'1 0.8
2014-Sep-20 21:33N 44°29' E 037°45'1 0.5
2014-Sep-20 20:33N 44°29' E 037°45'0 0.3
2014-Sep-20 19:33N 44°29' E 037°46'0 0.2
2014-Sep-20 18:33N 44°29' E 037°46'0 0.2
2014-Sep-20 17:33N 44°29' E 037°46'0 0.3
2014-Sep-20 16:33N 44°29' E 037°47'0 0.2
2014-Sep-20 15:33N 44°29' E 037°47'0 0.1
2014-Sep-20 14:33N 44°29' E 037°47'0 0.3
2014-Sep-20 13:33N 44°29' E 037°47'8 8.4
2014-Sep-20 12:33N 44°26' E 037°36'1220.9
2014-Sep-20 12:00N 44°18' E 037°24'611.8 020 / 131013.9 5.4 1.520.013.021.6
2014-Sep-20 11:31N 44°19' E 037°17'4216.7
2014-Sep-20 09:00N 44°00' E 036°24'3913.0 340 / 201015.0 5.4 1.017.013.522.4
2014-Sep-20 06:00N 43°42' E 035°36'   360 / 201015.6 5.4 2.017.014.421.6
Track history (hours):
 
Tides and Currents Weather Stations Pressure Air Temp Water Temp Dewpoint Dewpoint Depression Visibility Wind Speed Wind Dir Waves Ship Positions

Nedlloyd Mercator

Last reported at 2014-Sep-30 06:00 UTC. Time now 2014-Oct-01 14:20 UTC.
Position N 35°48' E 032°54'.

Length 278 m; beam 43 m.

Type: Ship (hazmat cat A). MMSI: 246433000.

Wind from 360 at 20 knots

Waves 2.5 meters (8 feet), 5 second period

Barometer 1015.4 mb
Air temperature 23.5 ° C
Visibility: greater than 10.8 NM
Dewpoint 8.6 ° C
Water temperature 26.5 ° C

Date/timePositionNaut miles runAvg speedWind from/ knotsBaromVisibWave heightAir tempDewpointWater temp
2014-Sep-30 06:00N 35°48' E 032°54'24813.8 360 / 201015.410.8 2.523.5 8.626.5
2014-Sep-29 12:00N 35°42' E 027°48'12112.7 010 / 101016.210.8 1.531.014.824.7
2014-Sep-29 02:32N 37°09' E 026°04'1313.3
2014-Sep-29 01:33N 37°21' E 025°58'1412.9
2014-Sep-29 00:27N 37°34' E 025°53'4 8.8
2014-Sep-29 00:00N 37°36' E 025°48'1319.2 360 / 201021.710.8 2.520.010.921.9
2014-Sep-28 23:19N 37°49' E 025°48'  
2014-Sep-26 07:30N 40°46' E 028°37'1010.9
2014-Sep-26 06:33N 40°45' E 028°51'1111.2
2014-Sep-26 05:33N 40°44' E 029°05'1111.2
2014-Sep-26 04:33N 40°44' E 029°20'1110.2
2014-Sep-26 03:30N 40°45' E 029°34'7 0.4
2014-Sep-25 11:05N 40°46' E 029°43'0 0.0
2014-Sep-25 10:11N 40°46' E 029°43'0 0.0
2014-Sep-25 04:33N 40°46' E 029°43'9 9.2
2014-Sep-25 03:32N 40°45' E 029°30'9 9.1
2014-Sep-25 02:33N 40°44' E 029°19'9 9.4
2014-Sep-25 01:33N 40°44' E 029°07'5 4.9
2014-Sep-25 00:33N 40°46' E 029°01'0 0.4
2014-Sep-24 23:33N 40°46' E 029°01'1 0.5
2014-Sep-24 22:33N 40°46' E 029°00'1 0.5
2014-Sep-24 21:33N 40°46' E 028°60'0 0.2
2014-Sep-24 20:33N 40°45' E 028°60'3 2.6
2014-Sep-24 19:32N 40°48' E 029°02'1 0.9
2014-Sep-24 18:33N 40°49' E 029°02'1 0.8
2014-Sep-24 17:33N 40°48' E 029°02'1 0.6
2014-Sep-24 16:33N 40°47' E 029°02'1 0.7
2014-Sep-24 15:33N 40°47' E 029°01'1 0.7
2014-Sep-24 14:33N 40°46' E 029°00'2 2.4
2014-Sep-24 13:33N 40°49' E 029°00'1 0.6
2014-Sep-24 12:33N 40°48' E 029°01'0 0.3
2014-Sep-24 11:32N 40°48' E 029°01'0 0.5
2014-Sep-24 10:30N 40°48' E 029°00'1 0.9
2014-Sep-24 09:33N 40°47' E 028°59'3 3.1
2014-Sep-24 08:33N 40°47' E 028°55'11 7.4
2014-Sep-24 07:06N 40°49' E 028°41'9 2.4
2014-Sep-24 03:20N 40°58' E 028°41'0 0.0
2014-Sep-24 02:32N 40°58' E 028°41'0 0.0
2014-Sep-24 01:32N 40°58' E 028°41'0 0.0
2014-Sep-23 23:20N 40°58' E 028°41'2 0.3
2014-Sep-23 18:33N 40°56' E 028°41'5 4.5
2014-Sep-23 17:21N 40°55' E 028°48'7 8.1
2014-Sep-23 16:32N 40°57' E 028°57'2310.5
2014-Sep-23 14:19N 41°19' E 029°09'1215.9
2014-Sep-23 13:33N 41°27' E 029°21'5 4.4
2014-Sep-23 12:31N 41°31' E 029°24'4 1.3
2014-Sep-23 09:18N 41°28' E 029°20'6 8.0
2014-Sep-23 08:34N 41°28' E 029°28'10111.8
2014-Sep-23 00:00N 42°12' E 031°30'7211.9 170 / 121004.210.8 1.023.019.122.9
2014-Sep-22 18:00N 42°48' E 032°54'7212.0 120 / 201008.210.8 2.020.516.422.5
2014-Sep-22 12:00N 43°18' E 034°24'3913.1 100 / 71010.310.8 0.520.519.720.1
2014-Sep-22 09:00N 43°36' E 035°12'10412.4 010 / 51011.410.8 0.520.014.920.8
2014-Sep-22 00:32N 44°25' E 037°20'3 5.1
2014-Sep-22 00:00N 44°24' E 037°24'1023.1 040 / 71011.2 5.4 0.517.013.822.8
2014-Sep-21 23:33N 44°30' E 037°35'1212.1
2014-Sep-21 22:33N 44°37' E 037°49'7 6.4
2014-Sep-21 21:31N 44°44' E 037°47'0 0.0
2014-Sep-21 20:31N 44°44' E 037°47'0 0.0
2014-Sep-21 19:31N 44°44' E 037°47'0 0.0
2014-Sep-21 18:31N 44°44' E 037°47'0 0.0
2014-Sep-21 17:31N 44°44' E 037°47'0 0.0
2014-Sep-21 16:31N 44°44' E 037°47'0 0.0
2014-Sep-21 15:31N 44°44' E 037°47'0 0.0
2014-Sep-21 14:34N 44°44' E 037°47'0 0.0
2014-Sep-21 13:34N 44°44' E 037°47'0 0.0
2014-Sep-21 12:33N 44°44' E 037°47'0 0.0
2014-Sep-21 11:33N 44°44' E 037°47'0 0.0
2014-Sep-21 10:33N 44°44' E 037°47'0 0.0
2014-Sep-21 09:33N 44°44' E 037°47'0 0.0
2014-Sep-21 08:33N 44°44' E 037°47'0 0.0
2014-Sep-21 07:33N 44°44' E 037°47'0 0.0
2014-Sep-21 06:33N 44°44' E 037°47'0 0.0
2014-Sep-21 05:33N 44°44' E 037°47'0 0.0
2014-Sep-21 04:33N 44°44' E 037°47'0 0.0
2014-Sep-21 03:33N 44°44' E 037°47'0 0.0
2014-Sep-21 02:33N 44°44' E 037°47'0 0.3
2014-Sep-21 01:33N 44°44' E 037°47'6 5.7
2014-Sep-21 00:33N 44°38' E 037°51'9 9.1
2014-Sep-20 23:33N 44°30' E 037°46'3 2.6
2014-Sep-20 22:33N 44°28' E 037°44'1 0.8
2014-Sep-20 21:33N 44°29' E 037°45'1 0.5
2014-Sep-20 20:33N 44°29' E 037°45'0 0.3
2014-Sep-20 19:33N 44°29' E 037°46'0 0.2
2014-Sep-20 18:33N 44°29' E 037°46'0 0.2
2014-Sep-20 17:33N 44°29' E 037°46'0 0.3
2014-Sep-20 16:33N 44°29' E 037°47'0 0.2
2014-Sep-20 15:33N 44°29' E 037°47'0 0.1
2014-Sep-20 14:33N 44°29' E 037°47'0 0.3
2014-Sep-20 13:33N 44°29' E 037°47'8 8.4
2014-Sep-20 12:33N 44°26' E 037°36'1220.9
2014-Sep-20 12:00N 44°18' E 037°24'611.8 020 / 131013.9 5.4 1.520.013.021.6
2014-Sep-20 11:31N 44°19' E 037°17'4216.7
2014-Sep-20 09:00N 44°00' E 036°24'3913.0 340 / 201015.0 5.4 1.017.013.522.4
2014-Sep-20 06:00N 43°42' E 035°36'   360 / 201015.6 5.4 2.017.014.421.6

Dump ship's entire track history